To NAV CANADA Home Page Login to a new session Search on AWWS site Feedback and Comments Disclaimer Vers la page française équivalente Tips FAQ What's new on the site To the Forecasts and Observations / NOTAM section To "File a Flight Plan" website Publications and other links Update of the User's profile FIC Telephone Numbers My Weather Data Folder Route Weather Data Regional Weather Data Local Weather Data To the Forecasts and Observations / NOTAM section
Request Generated 08/22/2017 at 03:25:45 UTC . Weather information available at that time is displayed.

METAR/TAF

HAMILTON/ON    

METAR CYHM 220300Z 19005KT 15SM FEW250 21/19 A3001 RMK CI1 SLP161
DENSITY ALT 1600FT=
METAR CYHM 220200Z 18006KT 15SM SCT250 21/19 A3002 RMK CI4 SLP165
DENSITY ALT 1600FT=
METAR CYHM 220100Z 20005KT 15SM BKN250 23/19 A3003 RMK CI5 SLP169
DENSITY ALT 1800FT=

TAF CYHM 212342Z 2200/2224 19012KT P6SM FEW025 SCT240
FM220300 21006KT P6SM FEW240
FM220900 20012KT 6SM BR FEW012
BECMG 2211/2213 21010G20KT
FM221400 21020G30KT P6SM -SHRA BKN010 OVC060 PROB30 2214/2217
VRB25G45KT 1SM +TSRA BR BKN008 OVC040CB
FM221800 24015G25KT 6SM -SHRA BR OVC015
FM222300 30015G25KT P6SM FEW020
RMK NXT FCST BY 220600Z=
Your time UTC time
Weather data provided by Environment Canada and NAV CANADA